sensor_id;sensor_type;location;lat;lon;timestamp;temperature;humidity
28530;DHT22;15737;49.760;6.632;2023-05-07T00:02:12;12.30;99.90
28530;DHT22;15737;49.760;6.632;2023-05-07T00:04:37;12.20;99.90
28530;DHT22;15737;49.760;6.632;2023-05-07T00:07:04;12.20;99.90
28530;DHT22;15737;49.760;6.632;2023-05-07T00:09:29;12.20;99.90
28530;DHT22;15737;49.760;6.632;2023-05-07T00:11:55;12.20;99.90
28530;DHT22;15737;49.760;6.632;2023-05-07T00:14:20;12.10;99.90
28530;DHT22;15737;49.760;6.632;2023-05-07T00:16:46;12.10;99.90
28530;DHT22;15737;49.760;6.632;2023-05-07T00:19:12;12.10;99.90
28530;DHT22;15737;49.760;6.632;2023-05-07T00:21:37;12.10;99.90
28530;DHT22;15737;49.760;6.632;2023-05-07T00:24:03;12.10;99.90
28530;DHT22;15737;49.760;6.632;2023-05-07T00:26:29;12.10;99.90
28530;DHT22;15737;49.760;6.632;2023-05-07T00:28:54;12.10;99.90
28530;DHT22;15737;49.760;6.632;2023-05-07T00:31:20;12.10;99.90
28530;DHT22;15737;49.760;6.632;2023-05-07T00:33:45;12.00;99.90
28530;DHT22;15737;49.760;6.632;2023-05-07T00:36:11;11.90;99.90
28530;DHT22;15737;49.760;6.632;2023-05-07T00:38:37;11.90;99.90
28530;DHT22;15737;49.760;6.632;2023-05-07T00:41:03;11.80;99.90
28530;DHT22;15737;49.760;6.632;2023-05-07T00:43:28;11.70;99.90
28530;DHT22;15737;49.760;6.632;2023-05-07T00:45:54;11.70;99.90
28530;DHT22;15737;49.760;6.632;2023-05-07T00:48:20;11.60;99.90
28530;DHT22;15737;49.760;6.632;2023-05-07T00:50:46;11.50;99.90
28530;DHT22;15737;49.760;6.632;2023-05-07T00:53:12;11.50;99.90
28530;DHT22;15737;49.760;6.632;2023-05-07T00:55:38;11.50;99.90
28530;DHT22;15737;49.760;6.632;2023-05-07T00:58:04;11.40;99.90
28530;DHT22;15737;49.760;6.632;2023-05-07T01:00:30;11.40;99.90
28530;DHT22;15737;49.760;6.632;2023-05-07T01:02:55;11.40;99.90
28530;DHT22;15737;49.760;6.632;2023-05-07T01:05:23;11.50;99.90
28530;DHT22;15737;49.760;6.632;2023-05-07T01:07:50;11.50;99.90
28530;DHT22;15737;49.760;6.632;2023-05-07T01:10:18;11.50;99.90
28530;DHT22;15737;49.760;6.632;2023-05-07T01:12:45;11.50;99.90
28530;DHT22;15737;49.760;6.632;2023-05-07T01:15:11;11.40;99.90
28530;DHT22;15737;49.760;6.632;2023-05-07T01:17:39;11.40;99.90
28530;DHT22;15737;49.760;6.632;2023-05-07T01:20:06;11.40;99.90
28530;DHT22;15737;49.760;6.632;2023-05-07T01:25:07;11.40;99.90
28530;DHT22;15737;49.760;6.632;2023-05-07T01:27:33;11.30;99.90
28530;DHT22;15737;49.760;6.632;2023-05-07T01:30:00;11.30;99.90
28530;DHT22;15737;49.760;6.632;2023-05-07T01:34:57;11.30;99.90
28530;DHT22;15737;49.760;6.632;2023-05-07T01:37:24;11.30;99.90
28530;DHT22;15737;49.760;6.632;2023-05-07T01:39:51;11.30;99.90
28530;DHT22;15737;49.760;6.632;2023-05-07T01:42:17;11.30;99.90
28530;DHT22;15737;49.760;6.632;2023-05-07T01:44:42;11.40;99.90
28530;DHT22;15737;49.760;6.632;2023-05-07T01:47:08;11.30;99.90
28530;DHT22;15737;49.760;6.632;2023-05-07T01:49:34;11.30;99.90
28530;DHT22;15737;49.760;6.632;2023-05-07T01:52:00;11.30;99.90
28530;DHT22;15737;49.760;6.632;2023-05-07T01:54:26;11.30;99.90
28530;DHT22;15737;49.760;6.632;2023-05-07T01:56:56;11.20;99.90
28530;DHT22;15737;49.760;6.632;2023-05-07T01:59:22;11.10;99.90
28530;DHT22;15737;49.760;6.632;2023-05-07T02:01:48;11.00;99.90
28530;DHT22;15737;49.760;6.632;2023-05-07T02:04:13;10.90;99.90
28530;DHT22;15737;49.760;6.632;2023-05-07T02:06:39;10.90;99.90
28530;DHT22;15737;49.760;6.632;2023-05-07T02:09:04;10.90;99.90
28530;DHT22;15737;49.760;6.632;2023-05-07T02:11:30;10.90;99.90
28530;DHT22;15737;49.760;6.632;2023-05-07T02:13:55;10.80;99.90
28530;DHT22;15737;49.760;6.632;2023-05-07T02:16:21;10.80;99.90
28530;DHT22;15737;49.760;6.632;2023-05-07T02:18:48;10.80;99.90
28530;DHT22;15737;49.760;6.632;2023-05-07T02:21:14;10.80;99.90
28530;DHT22;15737;49.760;6.632;2023-05-07T02:23:39;10.70;99.90
28530;DHT22;15737;49.760;6.632;2023-05-07T02:26:05;10.70;99.90
28530;DHT22;15737;49.760;6.632;2023-05-07T02:28:30;10.80;99.90
28530;DHT22;15737;49.760;6.632;2023-05-07T02:30:56;10.80;99.90
28530;DHT22;15737;49.760;6.632;2023-05-07T02:33:23;10.80;99.90
28530;DHT22;15737;49.760;6.632;2023-05-07T02:35:49;10.70;99.90
28530;DHT22;15737;49.760;6.632;2023-05-07T02:38:17;10.70;99.90
28530;DHT22;15737;49.760;6.632;2023-05-07T02:40:42;10.60;99.90
28530;DHT22;15737;49.760;6.632;2023-05-07T02:43:08;10.70;99.90
28530;DHT22;15737;49.760;6.632;2023-05-07T02:45:33;10.60;99.90
28530;DHT22;15737;49.760;6.632;2023-05-07T02:47:59;10.60;99.90
28530;DHT22;15737;49.760;6.632;2023-05-07T02:50:24;10.60;99.90
28530;DHT22;15737;49.760;6.632;2023-05-07T02:52:50;10.60;99.90
28530;DHT22;15737;49.760;6.632;2023-05-07T02:55:16;10.60;99.90
28530;DHT22;15737;49.760;6.632;2023-05-07T02:57:41;10.50;99.90
28530;DHT22;15737;49.760;6.632;2023-05-07T03:00:15;10.50;99.90
28530;DHT22;15737;49.760;6.632;2023-05-07T03:02:41;10.50;99.90
28530;DHT22;15737;49.760;6.632;2023-05-07T03:05:06;10.50;99.90
28530;DHT22;15737;49.760;6.632;2023-05-07T03:07:32;10.60;99.90
28530;DHT22;15737;49.760;6.632;2023-05-07T03:09:57;10.60;99.90
28530;DHT22;15737;49.760;6.632;2023-05-07T03:12:23;10.50;99.90
28530;DHT22;15737;49.760;6.632;2023-05-07T03:14:48;10.50;99.90
28530;DHT22;15737;49.760;6.632;2023-05-07T03:17:14;10.40;99.90
28530;DHT22;15737;49.760;6.632;2023-05-07T03:19:41;10.30;99.90
28530;DHT22;15737;49.760;6.632;2023-05-07T03:22:06;10.20;99.90
28530;DHT22;15737;49.760;6.632;2023-05-07T03:24:32;10.30;99.90
28530;DHT22;15737;49.760;6.632;2023-05-07T03:29:31;10.60;99.90
28530;DHT22;15737;49.760;6.632;2023-05-07T03:31:56;10.50;99.90
28530;DHT22;15737;49.760;6.632;2023-05-07T03:34:22;10.40;99.90
28530;DHT22;15737;49.760;6.632;2023-05-07T03:36:48;10.30;99.90
28530;DHT22;15737;49.760;6.632;2023-05-07T03:39:14;10.20;99.90
28530;DHT22;15737;49.760;6.632;2023-05-07T03:41:39;10.10;99.90
28530;DHT22;15737;49.760;6.632;2023-05-07T03:44:05;10.10;99.90
28530;DHT22;15737;49.760;6.632;2023-05-07T03:46:31;10.10;99.90
28530;DHT22;15737;49.760;6.632;2023-05-07T03:48:58;10.10;99.90
28530;DHT22;15737;49.760;6.632;2023-05-07T03:51:23;10.10;99.90
28530;DHT22;15737;49.760;6.632;2023-05-07T03:53:49;10.10;99.90
28530;DHT22;15737;49.760;6.632;2023-05-07T03:56:14;10.00;99.90
28530;DHT22;15737;49.760;6.632;2023-05-07T03:58:40;10.00;99.90
28530;DHT22;15737;49.760;6.632;2023-05-07T04:01:06;10.00;99.90
28530;DHT22;15737;49.760;6.632;2023-05-07T04:03:32;10.10;99.90
28530;DHT22;15737;49.760;6.632;2023-05-07T04:05:58;10.10;99.90
28530;DHT22;15737;49.760;6.632;2023-05-07T04:08:23;10.30;99.90
28530;DHT22;15737;49.760;6.632;2023-05-07T04:10:54;10.40;99.90
28530;DHT22;15737;49.760;6.632;2023-05-07T04:13:20;10.40;99.90
28530;DHT22;15737;49.760;6.632;2023-05-07T04:15:45;10.40;99.90
28530;DHT22;15737;49.760;6.632;2023-05-07T04:18:11;10.50;99.90
28530;DHT22;15737;49.760;6.632;2023-05-07T04:20:37;10.60;99.90
28530;DHT22;15737;49.760;6.632;2023-05-07T04:23:02;10.70;99.90
28530;DHT22;15737;49.760;6.632;2023-05-07T04:25:28;10.90;99.90
28530;DHT22;15737;49.760;6.632;2023-05-07T04:27:53;11.00;99.90
28530;DHT22;15737;49.760;6.632;2023-05-07T04:30:19;11.10;99.90
28530;DHT22;15737;49.760;6.632;2023-05-07T04:32:44;11.20;99.90
28530;DHT22;15737;49.760;6.632;2023-05-07T04:35:10;11.30;99.90
28530;DHT22;15737;49.760;6.632;2023-05-07T04:37:36;11.50;99.90
28530;DHT22;15737;49.760;6.632;2023-05-07T04:40:01;11.70;99.90
28530;DHT22;15737;49.760;6.632;2023-05-07T04:42:28;11.90;99.90
28530;DHT22;15737;49.760;6.632;2023-05-07T04:44:53;12.10;99.90
28530;DHT22;15737;49.760;6.632;2023-05-07T04:47:20;12.30;99.90
28530;DHT22;15737;49.760;6.632;2023-05-07T04:49:46;12.70;99.90
28530;DHT22;15737;49.760;6.632;2023-05-07T04:52:11;12.90;99.90
28530;DHT22;15737;49.760;6.632;2023-05-07T04:54:37;12.90;99.90
28530;DHT22;15737;49.760;6.632;2023-05-07T04:57:04;13.00;99.90
28530;DHT22;15737;49.760;6.632;2023-05-07T04:59:30;13.30;99.90
28530;DHT22;15737;49.760;6.632;2023-05-07T05:01:55;14.20;99.90
28530;DHT22;15737;49.760;6.632;2023-05-07T05:04:21;14.70;99.90
28530;DHT22;15737;49.760;6.632;2023-05-07T05:06:46;14.70;99.90
28530;DHT22;15737;49.760;6.632;2023-05-07T05:09:12;14.90;99.90
28530;DHT22;15737;49.760;6.632;2023-05-07T05:11:38;15.70;99.90
28530;DHT22;15737;49.760;6.632;2023-05-07T05:14:04;16.10;99.90
28530;DHT22;15737;49.760;6.632;2023-05-07T05:16:29;16.10;99.90
28530;DHT22;15737;49.760;6.632;2023-05-07T05:18:55;16.20;99.90
28530;DHT22;15737;49.760;6.632;2023-05-07T05:21:21;16.40;99.90
28530;DHT22;15737;49.760;6.632;2023-05-07T05:23:47;16.60;99.90
28530;DHT22;15737;49.760;6.632;2023-05-07T05:26:12;17.00;99.90
28530;DHT22;15737;49.760;6.632;2023-05-07T05:28:38;17.50;99.90
28530;DHT22;15737;49.760;6.632;2023-05-07T05:31:04;17.80;99.90
28530;DHT22;15737;49.760;6.632;2023-05-07T05:33:30;18.10;99.90
28530;DHT22;15737;49.760;6.632;2023-05-07T05:35:55;18.00;99.90
28530;DHT22;15737;49.760;6.632;2023-05-07T05:38:21;17.60;99.90
28530;DHT22;15737;49.760;6.632;2023-05-07T05:40:47;17.20;99.90
28530;DHT22;15737;49.760;6.632;2023-05-07T05:43:13;17.40;99.90
28530;DHT22;15737;49.760;6.632;2023-05-07T05:45:39;17.60;99.90
28530;DHT22;15737;49.760;6.632;2023-05-07T05:48:05;17.90;99.90
28530;DHT22;15737;49.760;6.632;2023-05-07T05:50:31;17.70;99.90
28530;DHT22;15737;49.760;6.632;2023-05-07T05:52:56;17.30;99.90
28530;DHT22;15737;49.760;6.632;2023-05-07T05:55:23;17.10;99.90
28530;DHT22;15737;49.760;6.632;2023-05-07T05:57:49;17.50;99.90
28530;DHT22;15737;49.760;6.632;2023-05-07T06:00:15;17.50;99.90
28530;DHT22;15737;49.760;6.632;2023-05-07T06:02:41;17.60;99.90
28530;DHT22;15737;49.760;6.632;2023-05-07T06:05:08;17.80;99.90
28530;DHT22;15737;49.760;6.632;2023-05-07T06:07:34;18.60;99.90
28530;DHT22;15737;49.760;6.632;2023-05-07T06:10:00;19.30;99.90
28530;DHT22;15737;49.760;6.632;2023-05-07T06:12:26;20.10;99.90
28530;DHT22;15737;49.760;6.632;2023-05-07T06:14:51;20.70;99.90
28530;DHT22;15737;49.760;6.632;2023-05-07T06:17:17;21.00;99.90
28530;DHT22;15737;49.760;6.632;2023-05-07T06:19:43;20.40;99.90
28530;DHT22;15737;49.760;6.632;2023-05-07T06:22:09;19.50;99.90
28530;DHT22;15737;49.760;6.632;2023-05-07T06:24:35;19.10;99.90
28530;DHT22;15737;49.760;6.632;2023-05-07T06:27:00;18.60;99.90
28530;DHT22;15737;49.760;6.632;2023-05-07T06:29:26;18.70;99.90
28530;DHT22;15737;49.760;6.632;2023-05-07T06:31:52;18.90;99.90
28530;DHT22;15737;49.760;6.632;2023-05-07T06:34:18;18.80;99.90
28530;DHT22;15737;49.760;6.632;2023-05-07T06:36:43;18.90;99.90
28530;DHT22;15737;49.760;6.632;2023-05-07T06:39:09;19.20;99.90
28530;DHT22;15737;49.760;6.632;2023-05-07T06:41:34;18.90;99.90
28530;DHT22;15737;49.760;6.632;2023-05-07T06:44:01;18.70;99.90
28530;DHT22;15737;49.760;6.632;2023-05-07T06:46:28;18.90;99.90
28530;DHT22;15737;49.760;6.632;2023-05-07T06:48:53;19.20;99.90
28530;DHT22;15737;49.760;6.632;2023-05-07T06:51:19;19.40;99.90
28530;DHT22;15737;49.760;6.632;2023-05-07T06:53:45;19.50;99.90
28530;DHT22;15737;49.760;6.632;2023-05-07T06:56:13;18.70;99.90
28530;DHT22;15737;49.760;6.632;2023-05-07T06:58:39;18.30;99.90
28530;DHT22;15737;49.760;6.632;2023-05-07T07:01:04;18.40;99.90
28530;DHT22;15737;49.760;6.632;2023-05-07T07:03:30;18.80;99.90
28530;DHT22;15737;49.760;6.632;2023-05-07T07:05:55;19.10;99.90
28530;DHT22;15737;49.760;6.632;2023-05-07T07:08:22;19.10;99.90
28530;DHT22;15737;49.760;6.632;2023-05-07T07:10:48;18.70;99.90
28530;DHT22;15737;49.760;6.632;2023-05-07T07:13:13;18.60;99.90
28530;DHT22;15737;49.760;6.632;2023-05-07T07:15:39;18.70;99.90
28530;DHT22;15737;49.760;6.632;2023-05-07T07:18:05;19.40;99.90
28530;DHT22;15737;49.760;6.632;2023-05-07T07:20:31;20.10;99.90
28530;DHT22;15737;49.760;6.632;2023-05-07T07:22:56;20.50;99.90
28530;DHT22;15737;49.760;6.632;2023-05-07T07:25:22;21.50;99.90
28530;DHT22;15737;49.760;6.632;2023-05-07T07:27:47;22.40;99.90
28530;DHT22;15737;49.760;6.632;2023-05-07T07:30:13;21.80;99.90
28530;DHT22;15737;49.760;6.632;2023-05-07T07:32:38;21.40;99.90
28530;DHT22;15737;49.760;6.632;2023-05-07T07:35:04;21.10;99.90
28530;DHT22;15737;49.760;6.632;2023-05-07T07:37:30;21.10;99.90
28530;DHT22;15737;49.760;6.632;2023-05-07T07:39:55;21.20;99.90
28530;DHT22;15737;49.760;6.632;2023-05-07T07:42:21;20.80;99.90
28530;DHT22;15737;49.760;6.632;2023-05-07T07:44:46;20.40;99.90
28530;DHT22;15737;49.760;6.632;2023-05-07T07:47:12;20.80;99.90
28530;DHT22;15737;49.760;6.632;2023-05-07T07:49:37;21.20;99.90
28530;DHT22;15737;49.760;6.632;2023-05-07T07:52:03;21.70;99.90
28530;DHT22;15737;49.760;6.632;2023-05-07T07:54:29;21.90;99.90
28530;DHT22;15737;49.760;6.632;2023-05-07T07:56:54;22.50;99.90
28530;DHT22;15737;49.760;6.632;2023-05-07T07:59:20;23.30;99.90
28530;DHT22;15737;49.760;6.632;2023-05-07T08:01:46;23.30;99.90
28530;DHT22;15737;49.760;6.632;2023-05-07T08:04:13;23.40;99.90
28530;DHT22;15737;49.760;6.632;2023-05-07T08:06:39;23.60;99.90
28530;DHT22;15737;49.760;6.632;2023-05-07T08:09:04;23.60;99.90
28530;DHT22;15737;49.760;6.632;2023-05-07T08:11:30;23.50;99.90
28530;DHT22;15737;49.760;6.632;2023-05-07T08:13:56;23.80;99.90
28530;DHT22;15737;49.760;6.632;2023-05-07T08:16:21;24.40;99.90
28530;DHT22;15737;49.760;6.632;2023-05-07T08:18:47;24.00;99.90
28530;DHT22;15737;49.760;6.632;2023-05-07T08:21:12;23.40;99.90
28530;DHT22;15737;49.760;6.632;2023-05-07T08:23:38;23.00;99.90
28530;DHT22;15737;49.760;6.632;2023-05-07T08:26:04;23.60;99.90
28530;DHT22;15737;49.760;6.632;2023-05-07T08:28:29;24.30;99.90
28530;DHT22;15737;49.760;6.632;2023-05-07T08:30:55;24.80;99.90
28530;DHT22;15737;49.760;6.632;2023-05-07T08:33:22;25.50;99.90
28530;DHT22;15737;49.760;6.632;2023-05-07T08:35:47;26.10;99.90
28530;DHT22;15737;49.760;6.632;2023-05-07T08:38:14;26.50;99.00
28530;DHT22;15737;49.760;6.632;2023-05-07T08:40:40;26.10;98.80
28530;DHT22;15737;49.760;6.632;2023-05-07T08:43:08;25.70;98.40
28530;DHT22;15737;49.760;6.632;2023-05-07T08:45:34;25.40;99.20
28530;DHT22;15737;49.760;6.632;2023-05-07T08:48:03;25.60;98.90
28530;DHT22;15737;49.760;6.632;2023-05-07T08:50:30;25.90;98.10
28530;DHT22;15737;49.760;6.632;2023-05-07T08:52:56;26.10;97.60
28530;DHT22;15737;49.760;6.632;2023-05-07T08:55:23;26.50;97.10
28530;DHT22;15737;49.760;6.632;2023-05-07T08:57:49;26.90;96.20
28530;DHT22;15737;49.760;6.632;2023-05-07T09:00:15;27.30;95.40
28530;DHT22;15737;49.760;6.632;2023-05-07T09:02:41;27.50;94.20
28530;DHT22;15737;49.760;6.632;2023-05-07T09:05:07;27.70;92.90
28530;DHT22;15737;49.760;6.632;2023-05-07T09:07:32;27.60;92.70
28530;DHT22;15737;49.760;6.632;2023-05-07T09:09:58;27.00;91.80
28530;DHT22;15737;49.760;6.632;2023-05-07T09:12:26;26.50;92.80
28530;DHT22;15737;49.760;6.632;2023-05-07T09:14:51;27.20;92.10
28530;DHT22;15737;49.760;6.632;2023-05-07T09:17:17;27.80;90.60
28530;DHT22;15737;49.760;6.632;2023-05-07T09:19:44;28.20;89.20
28530;DHT22;15737;49.760;6.632;2023-05-07T09:22:10;28.80;88.10
28530;DHT22;15737;49.760;6.632;2023-05-07T09:24:37;29.20;85.70
28530;DHT22;15737;49.760;6.632;2023-05-07T09:27:04;29.70;83.80
28530;DHT22;15737;49.760;6.632;2023-05-07T09:29:30;30.20;79.80
28530;DHT22;15737;49.760;6.632;2023-05-07T09:32:03;29.60;79.20
28530;DHT22;15737;49.760;6.632;2023-05-07T09:34:30;29.90;77.30
28530;DHT22;15737;49.760;6.632;2023-05-07T09:36:56;29.50;77.60
28530;DHT22;15737;49.760;6.632;2023-05-07T09:39:23;30.20;76.40
28530;DHT22;15737;49.760;6.632;2023-05-07T09:41:49;30.90;74.80
28530;DHT22;15737;49.760;6.632;2023-05-07T09:44:20;31.20;72.50
28530;DHT22;15737;49.760;6.632;2023-05-07T09:46:47;30.40;72.00
28530;DHT22;15737;49.760;6.632;2023-05-07T09:49:22;29.80;74.50
28530;DHT22;15737;49.760;6.632;2023-05-07T09:51:49;29.90;72.20
28530;DHT22;15737;49.760;6.632;2023-05-07T09:54:16;29.30;73.50
28530;DHT22;15737;49.760;6.632;2023-05-07T09:56:43;29.90;72.90
28530;DHT22;15737;49.760;6.632;2023-05-07T09:59:13;30.90;68.80
28530;DHT22;15737;49.760;6.632;2023-05-07T10:01:41;30.40;67.40
28530;DHT22;15737;49.760;6.632;2023-05-07T10:04:07;30.40;67.60
28530;DHT22;15737;49.760;6.632;2023-05-07T10:06:36;31.10;66.00
28530;DHT22;15737;49.760;6.632;2023-05-07T10:09:03;31.80;63.20
28530;DHT22;15737;49.760;6.632;2023-05-07T10:11:35;31.30;61.90
28530;DHT22;15737;49.760;6.632;2023-05-07T10:14:02;30.20;64.10
28530;DHT22;15737;49.760;6.632;2023-05-07T10:16:32;29.80;65.10
28530;DHT22;15737;49.760;6.632;2023-05-07T10:19:02;30.00;65.30
28530;DHT22;15737;49.760;6.632;2023-05-07T10:21:29;31.10;63.70
28530;DHT22;15737;49.760;6.632;2023-05-07T10:24:04;32.20;61.20
28530;DHT22;15737;49.760;6.632;2023-05-07T10:26:36;31.80;61.20
28530;DHT22;15737;49.760;6.632;2023-05-07T10:29:37;31.70;61.80
28530;DHT22;15737;49.760;6.632;2023-05-07T10:32:14;30.80;63.50
28530;DHT22;15737;49.760;6.632;2023-05-07T10:34:48;30.20;65.00
28530;DHT22;15737;49.760;6.632;2023-05-07T10:37:15;29.90;65.20
28530;DHT22;15737;49.760;6.632;2023-05-07T10:39:43;30.20;64.80
28530;DHT22;15737;49.760;6.632;2023-05-07T10:42:10;29.10;64.10
28530;DHT22;15737;49.760;6.632;2023-05-07T10:44:36;27.80;66.30
28530;DHT22;15737;49.760;6.632;2023-05-07T10:47:10;27.50;67.80
28530;DHT22;15737;49.760;6.632;2023-05-07T10:52:24;26.60;69.50
28530;DHT22;15737;49.760;6.632;2023-05-07T10:57:46;26.40;70.60
28530;DHT22;15737;49.760;6.632;2023-05-07T11:05:31;26.30;72.10
28530;DHT22;15737;49.760;6.632;2023-05-07T11:08:01;27.00;71.00
28530;DHT22;15737;49.760;6.632;2023-05-07T11:12:57;27.80;69.70
28530;DHT22;15737;49.760;6.632;2023-05-07T11:15:40;28.20;69.20
28530;DHT22;15737;49.760;6.632;2023-05-07T11:18:07;28.50;68.70
28530;DHT22;15737;49.760;6.632;2023-05-07T11:20:47;28.30;68.70
28530;DHT22;15737;49.760;6.632;2023-05-07T11:26:04;27.60;69.20
28530;DHT22;15737;49.760;6.632;2023-05-07T11:28:30;26.60;70.90
28530;DHT22;15737;49.760;6.632;2023-05-07T11:30:57;25.60;73.30
28530;DHT22;15737;49.760;6.632;2023-05-07T11:33:23;25.00;75.20
28530;DHT22;15737;49.760;6.632;2023-05-07T11:35:52;24.60;76.00
28530;DHT22;15737;49.760;6.632;2023-05-07T11:38:18;24.30;76.90
28530;DHT22;15737;49.760;6.632;2023-05-07T11:40:58;24.40;77.10
28530;DHT22;15737;49.760;6.632;2023-05-07T11:43:26;24.80;76.90
28530;DHT22;15737;49.760;6.632;2023-05-07T11:45:52;24.90;76.90
28530;DHT22;15737;49.760;6.632;2023-05-07T11:48:17;25.10;76.90
28530;DHT22;15737;49.760;6.632;2023-05-07T11:51:00;25.40;76.60
28530;DHT22;15737;49.760;6.632;2023-05-07T11:53:26;26.00;75.70
28530;DHT22;15737;49.760;6.632;2023-05-07T11:55:53;26.60;74.20
28530;DHT22;15737;49.760;6.632;2023-05-07T11:58:23;26.70;73.40
28530;DHT22;15737;49.760;6.632;2023-05-07T12:00:50;26.40;73.50
28530;DHT22;15737;49.760;6.632;2023-05-07T12:03:16;25.50;75.50
28530;DHT22;15737;49.760;6.632;2023-05-07T12:05:43;24.90;78.00
28530;DHT22;15737;49.760;6.632;2023-05-07T12:08:14;24.90;77.70
28530;DHT22;15737;49.760;6.632;2023-05-07T12:10:44;25.30;77.20
28530;DHT22;15737;49.760;6.632;2023-05-07T12:13:21;25.50;76.60
28530;DHT22;15737;49.760;6.632;2023-05-07T12:15:51;25.50;76.30
28530;DHT22;15737;49.760;6.632;2023-05-07T12:18:18;25.70;76.00
28530;DHT22;15737;49.760;6.632;2023-05-07T12:20:44;26.30;74.80
28530;DHT22;15737;49.760;6.632;2023-05-07T12:23:10;26.80;73.50
28530;DHT22;15737;49.760;6.632;2023-05-07T12:25:40;26.70;73.50
28530;DHT22;15737;49.760;6.632;2023-05-07T12:28:13;26.10;74.00
28530;DHT22;15737;49.760;6.632;2023-05-07T12:30:40;25.70;75.20
28530;DHT22;15737;49.760;6.632;2023-05-07T12:33:06;25.70;75.90
28530;DHT22;15737;49.760;6.632;2023-05-07T12:35:39;26.20;74.00
28530;DHT22;15737;49.760;6.632;2023-05-07T12:38:12;26.80;73.20
28530;DHT22;15737;49.760;6.632;2023-05-07T12:45:41;25.90;73.90
28530;DHT22;15737;49.760;6.632;2023-05-07T12:48:09;25.70;74.00
28530;DHT22;15737;49.760;6.632;2023-05-07T12:50:35;25.30;74.60
28530;DHT22;15737;49.760;6.632;2023-05-07T12:53:03;24.80;75.50
28530;DHT22;15737;49.760;6.632;2023-05-07T12:55:32;24.60;76.30
28530;DHT22;15737;49.760;6.632;2023-05-07T12:58:00;24.50;76.10
28530;DHT22;15737;49.760;6.632;2023-05-07T13:00:34;24.40;75.90
28530;DHT22;15737;49.760;6.632;2023-05-07T13:02:59;24.30;76.80
28530;DHT22;15737;49.760;6.632;2023-05-07T13:05:25;24.00;77.40
28530;DHT22;15737;49.760;6.632;2023-05-07T13:07:57;23.80;77.80
28530;DHT22;15737;49.760;6.632;2023-05-07T13:10:23;23.40;78.70
28530;DHT22;15737;49.760;6.632;2023-05-07T13:12:49;23.20;79.20
28530;DHT22;15737;49.760;6.632;2023-05-07T13:15:15;23.30;79.80
28530;DHT22;15737;49.760;6.632;2023-05-07T13:17:41;23.80;79.30
28530;DHT22;15737;49.760;6.632;2023-05-07T13:20:08;23.90;78.60
28530;DHT22;15737;49.760;6.632;2023-05-07T13:22:34;24.20;78.50
28530;DHT22;15737;49.760;6.632;2023-05-07T13:24:59;24.20;78.20
28530;DHT22;15737;49.760;6.632;2023-05-07T13:27:25;24.30;77.40
28530;DHT22;15737;49.760;6.632;2023-05-07T13:29:51;24.20;77.40
28530;DHT22;15737;49.760;6.632;2023-05-07T13:32:16;23.90;77.40
28530;DHT22;15737;49.760;6.632;2023-05-07T13:34:42;23.80;78.40
28530;DHT22;15737;49.760;6.632;2023-05-07T13:37:08;23.80;78.30
28530;DHT22;15737;49.760;6.632;2023-05-07T13:39:33;23.70;78.00
28530;DHT22;15737;49.760;6.632;2023-05-07T13:41:59;23.60;78.80
28530;DHT22;15737;49.760;6.632;2023-05-07T13:44:24;23.70;78.40
28530;DHT22;15737;49.760;6.632;2023-05-07T13:46:50;23.80;78.60
28530;DHT22;15737;49.760;6.632;2023-05-07T13:49:16;24.00;78.00
28530;DHT22;15737;49.760;6.632;2023-05-07T13:51:42;23.80;78.40
28530;DHT22;15737;49.760;6.632;2023-05-07T13:54:07;23.80;78.40
28530;DHT22;15737;49.760;6.632;2023-05-07T13:56:33;23.90;77.90
28530;DHT22;15737;49.760;6.632;2023-05-07T13:58:58;24.10;78.10
28530;DHT22;15737;49.760;6.632;2023-05-07T14:01:24;24.20;78.30
28530;DHT22;15737;49.760;6.632;2023-05-07T14:03:49;24.00;78.40
28530;DHT22;15737;49.760;6.632;2023-05-07T14:06:15;23.90;79.30
28530;DHT22;15737;49.760;6.632;2023-05-07T14:08:41;23.80;79.60
28530;DHT22;15737;49.760;6.632;2023-05-07T14:11:06;24.00;79.80
28530;DHT22;15737;49.760;6.632;2023-05-07T14:13:32;23.90;79.60
28530;DHT22;15737;49.760;6.632;2023-05-07T14:15:57;24.20;79.70
28530;DHT22;15737;49.760;6.632;2023-05-07T14:18:23;24.40;79.50
28530;DHT22;15737;49.760;6.632;2023-05-07T14:20:49;24.50;79.60
28530;DHT22;15737;49.760;6.632;2023-05-07T14:23:14;24.60;79.80
28530;DHT22;15737;49.760;6.632;2023-05-07T14:25:40;24.90;79.70
28530;DHT22;15737;49.760;6.632;2023-05-07T14:28:06;25.30;78.50
28530;DHT22;15737;49.760;6.632;2023-05-07T14:30:32;25.30;78.50
28530;DHT22;15737;49.760;6.632;2023-05-07T14:32:57;25.40;78.40
28530;DHT22;15737;49.760;6.632;2023-05-07T14:35:23;25.80;77.90
28530;DHT22;15737;49.760;6.632;2023-05-07T14:37:48;26.20;77.60
28530;DHT22;15737;49.760;6.632;2023-05-07T14:40:14;26.40;77.00
28530;DHT22;15737;49.760;6.632;2023-05-07T14:42:40;26.00;77.50
28530;DHT22;15737;49.760;6.632;2023-05-07T14:45:06;25.80;78.50
28530;DHT22;15737;49.760;6.632;2023-05-07T14:47:31;25.50;79.20
28530;DHT22;15737;49.760;6.632;2023-05-07T14:49:57;25.30;79.70
28530;DHT22;15737;49.760;6.632;2023-05-07T14:52:23;25.40;79.80
28530;DHT22;15737;49.760;6.632;2023-05-07T14:54:49;25.40;79.90
28530;DHT22;15737;49.760;6.632;2023-05-07T14:57:14;25.30;80.20
28530;DHT22;15737;49.760;6.632;2023-05-07T14:59:41;25.50;80.00
28530;DHT22;15737;49.760;6.632;2023-05-07T15:02:07;26.00;79.30
28530;DHT22;15737;49.760;6.632;2023-05-07T15:04:34;26.20;78.40
28530;DHT22;15737;49.760;6.632;2023-05-07T15:07:00;25.80;79.10
28530;DHT22;15737;49.760;6.632;2023-05-07T15:09:25;25.60;80.00
28530;DHT22;15737;49.760;6.632;2023-05-07T15:11:51;25.70;80.60
28530;DHT22;15737;49.760;6.632;2023-05-07T15:14:17;26.30;79.10
28530;DHT22;15737;49.760;6.632;2023-05-07T15:16:43;26.60;77.80
28530;DHT22;15737;49.760;6.632;2023-05-07T15:19:09;26.40;77.60
28530;DHT22;15737;49.760;6.632;2023-05-07T15:21:34;25.90;77.90
28530;DHT22;15737;49.760;6.632;2023-05-07T15:24:02;25.70;77.50
28530;DHT22;15737;49.760;6.632;2023-05-07T15:26:27;25.90;76.60
28530;DHT22;15737;49.760;6.632;2023-05-07T15:28:53;26.40;76.10
28530;DHT22;15737;49.760;6.632;2023-05-07T15:31:20;26.50;74.60
28530;DHT22;15737;49.760;6.632;2023-05-07T15:33:46;26.40;74.70
28530;DHT22;15737;49.760;6.632;2023-05-07T15:36:12;26.20;74.90
28530;DHT22;15737;49.760;6.632;2023-05-07T15:38:38;25.90;75.00
28530;DHT22;15737;49.760;6.632;2023-05-07T15:41:03;25.50;75.30
28530;DHT22;15737;49.760;6.632;2023-05-07T15:43:29;25.20;76.10
28530;DHT22;15737;49.760;6.632;2023-05-07T15:45:54;25.20;74.50
28530;DHT22;15737;49.760;6.632;2023-05-07T15:48:20;25.10;74.40
28530;DHT22;15737;49.760;6.632;2023-05-07T15:50:45;25.20;75.00
28530;DHT22;15737;49.760;6.632;2023-05-07T15:53:11;25.30;74.10
28530;DHT22;15737;49.760;6.632;2023-05-07T15:55:39;25.20;73.50